createdAt,value
2017-12-27T00:00:27.685Z,-88
2017-12-27T00:01:27.264Z,-88
2017-12-27T00:02:26.880Z,-88
2017-12-27T00:03:27.061Z,-89
2017-12-27T00:04:27.070Z,-88
2017-12-27T00:05:27.113Z,-88
2017-12-27T00:06:27.009Z,-88
2017-12-27T00:07:27.217Z,-89
2017-12-27T00:08:27.195Z,-88
2017-12-27T00:09:27.905Z,-88
2017-12-27T00:10:27.047Z,-88
2017-12-27T00:11:26.952Z,-88
2017-12-27T00:12:26.882Z,-88
2017-12-27T00:13:27.078Z,-89
2017-12-27T00:14:27.177Z,-88
2017-12-27T00:15:27.173Z,-88
2017-12-27T00:16:27.100Z,-88
2017-12-27T00:17:26.978Z,-88
2017-12-27T00:18:26.784Z,-88
2017-12-27T00:19:27.076Z,-85
2017-12-27T00:20:26.827Z,-84
2017-12-27T00:21:27.112Z,-84
2017-12-27T00:22:26.871Z,-86
2017-12-27T00:23:26.997Z,-89
2017-12-27T00:24:27.020Z,-90
2017-12-27T00:25:27.233Z,-89
2017-12-27T00:26:27.432Z,-88
2017-12-27T00:27:27.150Z,-89
2017-12-27T00:28:27.267Z,-89
2017-12-27T00:29:27.132Z,-89
2017-12-27T00:30:27.116Z,-90
2017-12-27T00:31:27.134Z,-86
2017-12-27T00:32:26.828Z,-86
2017-12-27T00:33:26.964Z,-85
2017-12-27T00:34:26.813Z,-86
2017-12-27T00:35:27.000Z,-84
2017-12-27T00:36:27.209Z,-86
2017-12-27T00:37:27.153Z,-85
2017-12-27T00:38:26.906Z,-86
2017-12-27T00:39:37.185Z,-89
2017-12-27T00:40:28.177Z,-88
2017-12-27T00:41:27.710Z,-88
2017-12-27T00:42:27.695Z,-89
2017-12-27T00:44:27.559Z,-89
2017-12-27T00:45:31.920Z,-89
2017-12-27T00:46:27.834Z,-89
2017-12-27T00:47:28.326Z,-89
2017-12-27T00:48:27.367Z,-89
2017-12-27T00:49:27.305Z,-89
2017-12-27T00:50:27.016Z,-89
2017-12-27T00:51:27.078Z,-88
2017-12-27T00:52:27.134Z,-89
2017-12-27T00:54:29.975Z,-85
2017-12-27T00:55:28.081Z,-83
2017-12-27T00:56:27.158Z,-85
2017-12-27T00:57:27.135Z,-85
2017-12-27T00:58:27.455Z,-84
2017-12-27T00:59:28.532Z,-86
2017-12-27T01:00:27.255Z,-86
2017-12-27T01:01:27.604Z,-85
2017-12-27T01:02:28.635Z,-85
2017-12-27T01:03:43.337Z,-83
2017-12-27T01:04:27.868Z,-84
2017-12-27T01:05:29.910Z,-84
2017-12-27T01:06:33.133Z,-84
2017-12-27T01:07:26.862Z,-85
2017-12-27T01:08:39.500Z,-85
2017-12-27T01:09:28.302Z,-85
2017-12-27T01:10:28.542Z,-86
2017-12-27T01:11:27.797Z,-86
2017-12-27T01:12:28.569Z,-86
2017-12-27T01:13:28.250Z,-86
2017-12-27T01:14:28.412Z,-85
2017-12-27T01:15:27.916Z,-86
2017-12-27T01:16:28.379Z,-85
2017-12-27T01:17:29.359Z,-85
2017-12-27T01:18:30.882Z,-88
2017-12-27T01:19:28.594Z,-89
2017-12-27T01:20:28.016Z,-89
2017-12-27T01:21:26.934Z,-90
2017-12-27T01:22:27.761Z,-89
2017-12-27T01:23:27.677Z,-89
2017-12-27T01:24:28.093Z,-88
2017-12-27T01:25:27.174Z,-89
2017-12-27T01:26:27.135Z,-85
2017-12-27T01:27:27.017Z,-85
2017-12-27T01:28:27.487Z,-90
2017-12-27T01:29:32.714Z,-87
2017-12-27T01:30:27.251Z,-89
2017-12-27T01:31:28.142Z,-85
2017-12-27T01:34:27.382Z,-84
2017-12-27T01:35:28.005Z,-85
2017-12-27T01:36:27.315Z,-85
2017-12-27T01:37:27.149Z,-85
2017-12-27T01:38:27.143Z,-85
2017-12-27T01:39:27.136Z,-85
2017-12-27T01:40:27.079Z,-88
2017-12-27T01:41:27.188Z,-89
2017-12-27T01:42:28.583Z,-88
2017-12-27T01:43:27.319Z,-88
2017-12-27T01:44:27.133Z,-88
2017-12-27T01:45:27.407Z,-87
2017-12-27T01:46:27.381Z,-85
2017-12-27T01:47:27.884Z,-89
2017-12-27T01:48:27.709Z,-87
2017-12-27T01:49:29.660Z,-89
2017-12-27T01:50:27.448Z,-88
2017-12-27T01:51:27.807Z,-88
2017-12-27T01:52:29.670Z,-89
2017-12-27T01:53:27.228Z,-88
2017-12-27T01:54:27.784Z,-87
2017-12-27T01:55:27.884Z,-88
2017-12-27T01:56:28.833Z,-88
2017-12-27T01:57:27.306Z,-88
2017-12-27T01:58:27.244Z,-87
2017-12-27T01:59:28.883Z,-88
2017-12-27T02:00:27.074Z,-85
2017-12-27T02:01:27.171Z,-85
2017-12-27T02:02:28.803Z,-86
2017-12-27T02:03:27.785Z,-86
2017-12-27T02:04:27.298Z,-86
2017-12-27T02:05:28.388Z,-86
2017-12-27T02:06:32.835Z,-85
2017-12-27T02:07:27.265Z,-86
2017-12-27T02:08:27.373Z,-85
2017-12-27T02:09:27.214Z,-83
2017-12-27T02:10:28.552Z,-84
2017-12-27T02:11:28.362Z,-84
2017-12-27T02:12:30.042Z,-84
2017-12-27T02:13:31.774Z,-83
2017-12-27T02:14:32.450Z,-84
2017-12-27T02:15:27.295Z,-85
2017-12-27T02:16:29.713Z,-85
2017-12-27T02:17:32.249Z,-85
2017-12-27T02:18:27.339Z,-86
2017-12-27T02:19:27.265Z,-84
2017-12-27T02:20:27.102Z,-83
2017-12-27T02:21:32.399Z,-84
2017-12-27T02:22:31.583Z,-86
2017-12-27T02:23:28.140Z,-85
2017-12-27T02:24:28.425Z,-85
2017-12-27T02:25:27.315Z,-85
2017-12-27T02:26:27.941Z,-86
2017-12-27T02:27:28.416Z,-85
2017-12-27T02:28:28.526Z,-86
2017-12-27T02:29:29.526Z,-86
2017-12-27T02:30:27.706Z,-85
2017-12-27T02:31:28.399Z,-86
2017-12-27T02:32:27.336Z,-89
2017-12-27T02:33:27.105Z,-89
2017-12-27T02:34:27.188Z,-85
2017-12-27T02:35:29.124Z,-89
2017-12-27T02:36:27.183Z,-89
2017-12-27T02:37:27.472Z,-88
2017-12-27T02:38:27.116Z,-88
2017-12-27T02:39:28.602Z,-88
2017-12-27T02:40:28.824Z,-88
2017-12-27T02:41:28.921Z,-88
2017-12-27T02:42:28.588Z,-88
2017-12-27T02:43:28.050Z,-89
2017-12-27T02:44:27.601Z,-90
2017-12-27T02:45:27.988Z,-87
2017-12-27T02:46:27.077Z,-88
2017-12-27T02:47:27.153Z,-89
2017-12-27T02:48:26.769Z,-89
2017-12-27T02:49:29.486Z,-89
2017-12-27T02:50:27.984Z,-88
2017-12-27T02:51:28.548Z,-88
2017-12-27T02:52:27.617Z,-88
2017-12-27T02:53:30.202Z,-88
2017-12-27T02:54:29.849Z,-89
2017-12-27T02:55:27.371Z,-87
2017-12-27T02:56:27.895Z,-88
2017-12-27T02:57:27.526Z,-88
2017-12-27T02:58:28.493Z,-89
2017-12-27T02:59:29.132Z,-85
2017-12-27T03:00:28.276Z,-86
2017-12-27T03:01:31.331Z,-86
2017-12-27T03:02:28.319Z,-86
2017-12-27T03:03:28.903Z,-86
2017-12-27T03:04:27.274Z,-85
2017-12-27T03:05:27.508Z,-88
2017-12-27T03:06:30.098Z,-88
2017-12-27T03:07:27.563Z,-86
2017-12-27T03:08:28.432Z,-85
2017-12-27T03:09:27.241Z,-85
2017-12-27T03:10:27.165Z,-83
2017-12-27T03:11:30.112Z,-84
2017-12-27T03:12:29.308Z,-84
2017-12-27T03:13:27.135Z,-88
2017-12-27T03:14:26.968Z,-88
2017-12-27T03:15:27.179Z,-88
2017-12-27T03:16:27.331Z,-89
2017-12-27T03:17:27.339Z,-88
2017-12-27T03:18:36.490Z,-84
2017-12-27T03:20:26.946Z,-88
2017-12-27T03:21:27.341Z,-88
2017-12-27T03:22:29.000Z,-84
2017-12-27T03:23:30.724Z,-88
2017-12-27T03:24:28.145Z,-89
2017-12-27T03:25:29.458Z,-90
2017-12-27T03:26:29.764Z,-89
2017-12-27T03:27:29.987Z,-89
2017-12-27T03:28:29.699Z,-89
2017-12-27T03:29:27.737Z,-89
2017-12-27T03:30:27.210Z,-89
2017-12-27T03:31:27.397Z,-88
2017-12-27T03:32:28.135Z,-89
2017-12-27T03:33:28.825Z,-89
2017-12-27T03:34:27.716Z,-89
2017-12-27T03:35:30.597Z,-89
2017-12-27T03:36:27.980Z,-89
2017-12-27T03:37:27.246Z,-89
2017-12-27T03:38:29.814Z,-88
2017-12-27T03:39:29.334Z,-90
2017-12-27T03:40:31.339Z,-89
2017-12-27T03:41:29.702Z,-87
2017-12-27T03:42:28.511Z,-88
2017-12-27T03:43:28.310Z,-88
2017-12-27T03:54:43.708Z,-86
2017-12-27T04:02:28.800Z,-82
2017-12-27T04:03:24.561Z,-84
2017-12-27T04:04:24.538Z,-86
2017-12-27T04:05:24.643Z,-85
2017-12-27T04:06:24.455Z,-85
2017-12-27T04:07:24.534Z,-85
2017-12-27T04:08:24.368Z,-89
2017-12-27T04:09:24.450Z,-89
2017-12-27T04:10:24.552Z,-89
2017-12-27T04:11:24.607Z,-89
2017-12-27T04:12:24.794Z,-87
2017-12-27T04:13:24.300Z,-89
2017-12-27T04:14:24.293Z,-88
2017-12-27T04:15:24.895Z,-88
2017-12-27T04:16:24.502Z,-89
2017-12-27T04:17:24.012Z,-89
2017-12-27T04:18:24.151Z,-88
2017-12-27T04:19:24.579Z,-87
2017-12-27T04:20:24.063Z,-85
2017-12-27T04:21:24.560Z,-85
2017-12-27T04:22:24.977Z,-86
2017-12-27T04:23:24.949Z,-85
2017-12-27T04:24:24.009Z,-86
2017-12-27T04:25:24.640Z,-88
2017-12-27T04:26:24.484Z,-88
2017-12-27T04:27:24.141Z,-89
2017-12-27T04:28:25.011Z,-88
2017-12-27T04:29:24.597Z,-89
2017-12-27T04:30:24.407Z,-89
2017-12-27T04:31:24.583Z,-89
2017-12-27T04:32:24.601Z,-86
2017-12-27T04:33:24.664Z,-86
2017-12-27T04:34:24.831Z,-86
2017-12-27T04:35:24.667Z,-85
2017-12-27T04:36:24.699Z,-85
2017-12-27T04:37:23.974Z,-88
2017-12-27T04:38:24.743Z,-82
2017-12-27T04:39:24.942Z,-84
2017-12-27T04:40:24.768Z,-84
2017-12-27T04:41:24.807Z,-84
2017-12-27T04:42:24.695Z,-85
2017-12-27T04:43:24.070Z,-85
2017-12-27T04:44:24.547Z,-85
2017-12-27T04:45:24.539Z,-85
2017-12-27T04:46:24.735Z,-85
2017-12-27T04:47:24.493Z,-84
2017-12-27T04:48:24.594Z,-85
2017-12-27T04:49:24.600Z,-85
2017-12-27T04:50:24.594Z,-85
2017-12-27T04:51:24.700Z,-85
2017-12-27T04:52:24.748Z,-84
2017-12-27T04:53:24.671Z,-87
2017-12-27T04:54:23.978Z,-87
2017-12-27T04:55:24.671Z,-87
2017-12-27T04:56:24.444Z,-87
2017-12-27T04:57:24.667Z,-87
2017-12-27T04:58:24.771Z,-87
2017-12-27T04:59:24.189Z,-87
2017-12-27T05:00:24.714Z,-87
2017-12-27T05:01:24.489Z,-87
2017-12-27T05:02:24.589Z,-87
2017-12-27T05:03:24.750Z,-87
2017-12-27T05:04:24.534Z,-88
2017-12-27T05:05:24.008Z,-87
2017-12-27T05:06:24.230Z,-85
2017-12-27T05:07:24.727Z,-85
2017-12-27T05:08:24.529Z,-85
2017-12-27T05:09:24.672Z,-85
2017-12-27T05:10:25.103Z,-85
2017-12-27T05:11:24.795Z,-87
2017-12-27T05:12:24.904Z,-87
2017-12-27T05:13:24.748Z,-88
2017-12-27T05:14:24.700Z,-88
2017-12-27T05:15:24.661Z,-88
2017-12-27T05:16:24.608Z,-87
2017-12-27T05:17:24.763Z,-88
2017-12-27T05:18:24.661Z,-88
2017-12-27T05:19:24.640Z,-88
2017-12-27T05:20:24.418Z,-88
2017-12-27T05:21:24.976Z,-88
2017-12-27T05:22:24.637Z,-87
2017-12-27T05:23:24.408Z,-88
2017-12-27T05:24:24.515Z,-88
2017-12-27T05:25:24.808Z,-88
2017-12-27T05:26:24.776Z,-89
2017-12-27T05:27:24.513Z,-89
2017-12-27T05:28:24.666Z,-88
2017-12-27T05:29:24.348Z,-88
2017-12-27T05:30:24.866Z,-89
2017-12-27T05:31:24.425Z,-89
2017-12-27T05:32:24.677Z,-89
2017-12-27T05:33:24.600Z,-89
2017-12-27T05:34:24.716Z,-89
2017-12-27T05:35:24.732Z,-89
2017-12-27T05:36:24.823Z,-89
2017-12-27T05:37:24.857Z,-89
2017-12-27T05:38:24.708Z,-89
2017-12-27T05:39:24.684Z,-89
2017-12-27T05:40:24.772Z,-89
2017-12-27T05:41:24.603Z,-86
2017-12-27T05:42:24.640Z,-86
2017-12-27T05:43:24.722Z,-85
2017-12-27T05:44:24.880Z,-86
2017-12-27T05:45:24.695Z,-86
2017-12-27T05:46:24.582Z,-85
2017-12-27T05:47:24.779Z,-86
2017-12-27T05:48:24.826Z,-86
2017-12-27T05:49:24.649Z,-86
2017-12-27T05:50:24.696Z,-85
2017-12-27T05:51:24.594Z,-87
2017-12-27T05:52:25.088Z,-85
2017-12-27T05:53:24.643Z,-85
2017-12-27T05:54:25.046Z,-86
2017-12-27T05:55:24.552Z,-86
2017-12-27T05:56:24.201Z,-86
2017-12-27T05:57:24.625Z,-85
2017-12-27T05:58:24.517Z,-85
2017-12-27T05:59:24.449Z,-85
2017-12-27T06:00:24.855Z,-85
2017-12-27T06:01:24.823Z,-84
2017-12-27T06:02:24.613Z,-85
2017-12-27T06:03:24.923Z,-85
2017-12-27T06:04:25.032Z,-86
2017-12-27T06:05:24.652Z,-86
2017-12-27T06:06:25.521Z,-86
2017-12-27T06:07:24.656Z,-85
2017-12-27T06:08:24.438Z,-86
2017-12-27T06:09:24.829Z,-86
2017-12-27T06:10:24.776Z,-86
2017-12-27T06:11:25.591Z,-86
2017-12-27T06:12:25.124Z,-86
2017-12-27T06:13:24.793Z,-86
2017-12-27T06:14:24.640Z,-86
2017-12-27T06:15:25.261Z,-87
2017-12-27T06:16:24.481Z,-86
2017-12-27T06:17:24.592Z,-90
2017-12-27T06:18:24.886Z,-90
2017-12-27T06:19:24.633Z,-90
2017-12-27T06:20:25.088Z,-90
2017-12-27T06:21:24.774Z,-90
2017-12-27T06:22:25.257Z,-90
2017-12-27T06:23:24.750Z,-91
2017-12-27T06:24:25.260Z,-90
2017-12-27T06:25:25.002Z,-89
2017-12-27T06:26:24.681Z,-90
2017-12-27T06:27:24.890Z,-90
2017-12-27T06:28:24.783Z,-90
2017-12-27T06:29:24.750Z,-90
2017-12-27T06:30:24.957Z,-91
2017-12-27T06:31:24.803Z,-91
2017-12-27T06:32:24.684Z,-90
2017-12-27T06:33:25.027Z,-91
2017-12-27T06:34:24.903Z,-91
2017-12-27T06:35:24.192Z,-90
2017-12-27T06:36:24.956Z,-90
2017-12-27T06:37:24.617Z,-90
2017-12-27T06:38:24.821Z,-91
2017-12-27T06:39:24.644Z,-91
2017-12-27T06:40:25.159Z,-90
2017-12-27T06:41:24.820Z,-91
2017-12-27T06:42:24.678Z,-92
2017-12-27T06:43:25.258Z,-91
2017-12-27T06:44:25.054Z,-91
2017-12-27T06:45:25.215Z,-91
2017-12-27T06:46:25.032Z,-92
2017-12-27T06:47:24.956Z,-91
2017-12-27T06:48:25.068Z,-91
2017-12-27T06:49:24.636Z,-91
2017-12-27T06:50:24.975Z,-91
2017-12-27T06:51:25.545Z,-91
2017-12-27T06:52:24.994Z,-92
2017-12-27T06:53:25.257Z,-91
2017-12-27T06:54:25.247Z,-92
2017-12-27T06:55:24.561Z,-91
2017-12-27T06:56:25.210Z,-91
2017-12-27T06:57:25.324Z,-91
2017-12-27T06:58:25.490Z,-91
2017-12-27T06:59:25.137Z,-91
2017-12-27T07:00:24.670Z,-91
2017-12-27T07:01:24.941Z,-91
2017-12-27T07:02:25.038Z,-91
2017-12-27T07:03:25.426Z,-91
2017-12-27T07:04:24.855Z,-91
2017-12-27T07:05:25.167Z,-91
2017-12-27T07:06:25.344Z,-90
2017-12-27T07:07:25.128Z,-91
2017-12-27T07:08:24.873Z,-91
2017-12-27T07:09:25.276Z,-91
2017-12-27T07:10:25.106Z,-90
2017-12-27T07:11:25.171Z,-91
2017-12-27T07:12:25.234Z,-91
2017-12-27T07:13:25.286Z,-91
2017-12-27T07:14:25.270Z,-91
2017-12-27T07:15:25.068Z,-90
2017-12-27T07:16:25.232Z,-91
2017-12-27T07:17:25.086Z,-91
2017-12-27T07:18:25.059Z,-91
2017-12-27T07:19:24.839Z,-85
2017-12-27T07:20:24.634Z,-85
2017-12-27T07:21:24.461Z,-85
2017-12-27T07:22:24.994Z,-85
2017-12-27T07:23:24.660Z,-85
2017-12-27T07:24:24.778Z,-85
2017-12-27T07:25:24.669Z,-85
2017-12-27T07:26:24.881Z,-85
2017-12-27T07:27:24.786Z,-86
2017-12-27T07:28:24.573Z,-86
2017-12-27T07:29:25.818Z,-84
2017-12-27T07:30:24.746Z,-84
2017-12-27T07:31:24.971Z,-84
2017-12-27T07:32:24.701Z,-85
2017-12-27T07:33:24.904Z,-86
2017-12-27T07:34:25.055Z,-90
2017-12-27T07:35:25.275Z,-90
2017-12-27T07:36:25.150Z,-90
2017-12-27T07:37:25.083Z,-90
2017-12-27T07:38:25.057Z,-90
2017-12-27T07:39:24.649Z,-90
2017-12-27T07:40:24.930Z,-90
2017-12-27T07:41:25.025Z,-90
2017-12-27T07:42:24.886Z,-90
2017-12-27T07:43:25.031Z,-90
2017-12-27T07:44:24.991Z,-90
2017-12-27T07:45:24.861Z,-89
2017-12-27T07:46:25.184Z,-90
2017-12-27T07:47:24.934Z,-89
2017-12-27T07:48:24.877Z,-86
2017-12-27T07:49:24.739Z,-86
2017-12-27T07:50:25.315Z,-86
2017-12-27T07:51:24.969Z,-85
2017-12-27T07:52:25.262Z,-85
2017-12-27T07:53:24.918Z,-86
2017-12-27T07:54:24.723Z,-85
2017-12-27T07:55:24.943Z,-86
2017-12-27T07:56:24.850Z,-86
2017-12-27T07:57:24.902Z,-85
2017-12-27T07:58:24.921Z,-85
2017-12-27T07:59:24.896Z,-85
2017-12-27T08:00:25.116Z,-86
2017-12-27T08:01:24.654Z,-85
2017-12-27T08:02:25.276Z,-86
2017-12-27T08:03:24.692Z,-86
2017-12-27T08:04:24.862Z,-87
2017-12-27T08:05:24.912Z,-91
2017-12-27T08:06:25.241Z,-91
2017-12-27T08:07:25.391Z,-91
2017-12-27T08:08:25.582Z,-91
2017-12-27T08:09:25.115Z,-91
2017-12-27T08:10:25.096Z,-90
2017-12-27T08:11:25.425Z,-89
2017-12-27T08:12:24.749Z,-86
2017-12-27T08:13:25.640Z,-87
2017-12-27T08:14:24.704Z,-87
2017-12-27T08:15:25.011Z,-87
2017-12-27T08:16:24.974Z,-86
2017-12-27T08:17:24.858Z,-87
2017-12-27T08:18:24.927Z,-87
2017-12-27T08:19:24.972Z,-86
2017-12-27T08:20:25.114Z,-86
2017-12-27T08:21:24.898Z,-86
2017-12-27T08:22:24.499Z,-87
2017-12-27T08:23:25.036Z,-87
2017-12-27T08:24:24.796Z,-87
2017-12-27T08:25:25.381Z,-87
2017-12-27T08:26:25.487Z,-87
2017-12-27T08:27:24.765Z,-87
2017-12-27T08:28:25.039Z,-86
2017-12-27T08:29:25.081Z,-86
2017-12-27T08:32:39.305Z,-90
2017-12-27T08:33:25.165Z,-91
2017-12-27T08:34:25.290Z,-90
2017-12-27T08:35:25.172Z,-92
2017-12-27T08:36:24.104Z,-91
2017-12-27T08:37:24.383Z,-92
2017-12-27T08:38:24.443Z,-92
2017-12-27T08:39:24.173Z,-91
2017-12-27T08:40:23.852Z,-86
2017-12-27T08:41:24.336Z,-91
2017-12-27T08:42:24.286Z,-91
2017-12-27T08:43:24.910Z,-91
2017-12-27T08:44:24.108Z,-92
2017-12-27T08:45:24.723Z,-92
2017-12-27T08:46:24.186Z,-86
2017-12-27T08:47:24.152Z,-86
2017-12-27T08:48:24.099Z,-87
2017-12-27T08:49:23.914Z,-86
2017-12-27T08:50:24.343Z,-87
2017-12-27T08:51:24.117Z,-87
2017-12-27T08:52:24.841Z,-86
2017-12-27T08:53:23.811Z,-87
2017-12-27T08:54:23.727Z,-87
2017-12-27T08:55:24.154Z,-88
2017-12-27T08:56:23.954Z,-87
2017-12-27T08:57:23.793Z,-87
2017-12-27T08:58:24.355Z,-87
2017-12-27T08:59:23.903Z,-87
2017-12-27T09:00:23.998Z,-87
2017-12-27T09:01:23.855Z,-91
2017-12-27T09:02:24.033Z,-92
2017-12-27T09:03:24.397Z,-91
2017-12-27T09:04:24.076Z,-91
2017-12-27T09:05:24.186Z,-90
2017-12-27T09:06:24.026Z,-91
2017-12-27T09:07:24.203Z,-91
2017-12-27T09:08:24.275Z,-90
2017-12-27T09:09:24.358Z,-91
2017-12-27T09:10:24.017Z,-91
2017-12-27T09:11:24.992Z,-89
2017-12-27T09:12:24.204Z,-91
2017-12-27T09:13:24.122Z,-91
2017-12-27T09:14:23.760Z,-91
2017-12-27T09:15:24.189Z,-90
2017-12-27T09:16:24.180Z,-90
2017-12-27T09:17:23.986Z,-92
2017-12-27T09:18:23.891Z,-90
2017-12-27T09:19:24.400Z,-91
2017-12-27T09:20:25.372Z,-92
2017-12-27T09:21:24.142Z,-91
2017-12-27T09:22:23.826Z,-90
2017-12-27T09:23:23.962Z,-91
2017-12-27T09:24:24.034Z,-91
2017-12-27T09:25:23.965Z,-91
2017-12-27T09:26:24.288Z,-91
2017-12-27T09:27:23.787Z,-90
2017-12-27T09:28:23.946Z,-91
2017-12-27T09:29:24.110Z,-91
2017-12-27T09:30:24.288Z,-92
2017-12-27T09:31:23.981Z,-91
2017-12-27T09:32:24.046Z,-90
2017-12-27T09:33:23.982Z,-86
2017-12-27T09:34:23.832Z,-86
2017-12-27T09:35:23.921Z,-87
2017-12-27T09:36:24.209Z,-87
2017-12-27T09:37:23.877Z,-87
2017-12-27T09:38:23.946Z,-87
2017-12-27T09:39:24.136Z,-87
2017-12-27T09:40:23.912Z,-87
2017-12-27T09:41:24.103Z,-88
2017-12-27T09:42:24.072Z,-86
2017-12-27T09:43:23.968Z,-86
2017-12-27T09:44:24.170Z,-87
2017-12-27T09:45:23.889Z,-87
2017-12-27T09:46:23.964Z,-88
2017-12-27T09:47:24.100Z,-87
2017-12-27T09:48:24.083Z,-87
2017-12-27T09:49:23.651Z,-87
2017-12-27T09:50:23.895Z,-87
2017-12-27T09:51:24.141Z,-87
2017-12-27T09:52:24.100Z,-87
2017-12-27T09:53:24.165Z,-87
2017-12-27T09:54:23.945Z,-87
2017-12-27T09:55:24.392Z,-86
2017-12-27T09:56:23.849Z,-84
2017-12-27T09:57:23.854Z,-80
2017-12-27T09:58:23.964Z,-82
2017-12-27T09:59:23.778Z,-82
2017-12-27T10:00:23.987Z,-82
2017-12-27T10:01:23.769Z,-83
2017-12-27T10:02:24.008Z,-82
2017-12-27T10:03:23.894Z,-81
2017-12-27T10:04:23.651Z,-81
2017-12-27T10:05:23.699Z,-82
2017-12-27T10:06:24.018Z,-86
2017-12-27T10:07:23.671Z,-82
2017-12-27T10:08:24.017Z,-82
2017-12-27T10:09:24.626Z,-83
2017-12-27T10:10:23.853Z,-83
2017-12-27T10:11:23.838Z,-83
2017-12-27T10:12:23.933Z,-83
2017-12-27T10:13:24.079Z,-83
2017-12-27T10:14:23.981Z,-84
2017-12-27T10:15:23.991Z,-82
2017-12-27T10:16:23.872Z,-81
2017-12-27T10:17:23.868Z,-82
2017-12-27T10:18:23.997Z,-83
2017-12-27T10:19:24.093Z,-83
2017-12-27T10:20:23.986Z,-83
2017-12-27T10:21:23.808Z,-83
2017-12-27T10:22:24.026Z,-83
2017-12-27T10:23:24.058Z,-83
2017-12-27T10:24:23.866Z,-84
2017-12-27T10:25:24.015Z,-84
2017-12-27T10:26:23.834Z,-82
2017-12-27T10:27:23.976Z,-83
2017-12-27T10:28:23.837Z,-83
2017-12-27T10:29:24.060Z,-83
2017-12-27T10:30:24.112Z,-83
2017-12-27T10:31:23.842Z,-82
2017-12-27T10:32:23.764Z,-83
2017-12-27T10:33:24.025Z,-83
2017-12-27T10:34:24.019Z,-83
2017-12-27T10:35:23.794Z,-83
2017-12-27T10:36:23.855Z,-83
2017-12-27T10:37:23.921Z,-82
2017-12-27T10:38:24.362Z,-83
2017-12-27T10:39:23.786Z,-87
2017-12-27T10:40:24.061Z,-84
2017-12-27T10:41:23.942Z,-84
2017-12-27T10:42:23.846Z,-84
2017-12-27T10:43:23.984Z,-87
2017-12-27T10:44:23.845Z,-87
2017-12-27T10:45:24.074Z,-87
2017-12-27T10:46:24.005Z,-87
2017-12-27T10:47:24.003Z,-87
2017-12-27T10:48:23.943Z,-87
2017-12-27T10:49:24.019Z,-84
2017-12-27T10:50:23.796Z,-83
2017-12-27T10:51:24.059Z,-84
2017-12-27T10:52:23.952Z,-86
2017-12-27T10:53:24.039Z,-86
2017-12-27T10:54:24.043Z,-87
2017-12-27T10:55:24.154Z,-88
2017-12-27T10:56:23.966Z,-87
2017-12-27T10:57:24.081Z,-88
2017-12-27T10:58:24.128Z,-87
2017-12-27T10:59:24.069Z,-88
2017-12-27T11:00:23.965Z,-87
2017-12-27T11:01:24.122Z,-87
2017-12-27T11:02:24.054Z,-86
2017-12-27T11:03:23.959Z,-86
2017-12-27T11:04:23.893Z,-87
2017-12-27T11:05:23.966Z,-84
2017-12-27T11:06:24.254Z,-84
2017-12-27T11:07:24.119Z,-88
2017-12-27T11:08:24.034Z,-86
2017-12-27T11:09:24.148Z,-85
2017-12-27T11:10:23.866Z,-84
2017-12-27T11:11:23.942Z,-85
2017-12-27T11:12:23.986Z,-84
2017-12-27T11:13:23.962Z,-84
2017-12-27T11:14:24.092Z,-86
2017-12-27T11:15:23.997Z,-86
2017-12-27T11:16:23.996Z,-85
2017-12-27T11:17:24.002Z,-86
2017-12-27T11:18:24.028Z,-85
2017-12-27T11:19:23.876Z,-85
2017-12-27T11:20:23.945Z,-85
2017-12-27T11:21:24.215Z,-86
2017-12-27T11:22:23.847Z,-85
2017-12-27T11:23:23.943Z,-86
2017-12-27T11:24:24.077Z,-86
2017-12-27T11:25:23.872Z,-86
2017-12-27T11:26:24.172Z,-84
2017-12-27T11:27:23.961Z,-87
2017-12-27T11:28:23.857Z,-86
2017-12-27T11:29:23.996Z,-86
2017-12-27T11:30:24.401Z,-87
2017-12-27T11:31:24.020Z,-88
2017-12-27T11:32:24.017Z,-87
2017-12-27T11:33:24.134Z,-87
2017-12-27T11:34:24.206Z,-86
2017-12-27T11:35:24.334Z,-86
2017-12-27T11:36:24.051Z,-86
2017-12-27T11:37:24.108Z,-85
2017-12-27T11:38:23.944Z,-87
2017-12-27T11:39:23.869Z,-87
2017-12-27T11:40:24.107Z,-86
2017-12-27T11:41:24.099Z,-86
2017-12-27T11:42:24.052Z,-86
2017-12-27T11:43:24.159Z,-87
2017-12-27T12:39:24.460Z,-77
2017-12-27T12:40:24.442Z,-87
2017-12-27T12:41:24.220Z,-87
2017-12-27T12:42:24.384Z,-87
2017-12-27T12:43:24.575Z,-87
2017-12-27T12:44:26.713Z,-87
2017-12-27T12:45:24.328Z,-87
2017-12-27T12:46:24.239Z,-87
2017-12-27T12:47:24.281Z,-87
2017-12-27T12:48:24.475Z,-87
2017-12-27T12:49:23.992Z,-87
2017-12-27T12:50:24.203Z,-87
2017-12-27T12:51:24.286Z,-86
2017-12-27T12:52:24.564Z,-86
2017-12-27T12:53:24.198Z,-87
2017-12-27T12:54:24.458Z,-87
2017-12-27T12:55:24.133Z,-86
2017-12-27T12:56:24.382Z,-86
2017-12-27T12:57:24.329Z,-87
2017-12-27T12:58:24.287Z,-87
2017-12-27T12:59:24.263Z,-87
2017-12-27T13:00:24.795Z,-86
2017-12-27T13:01:24.405Z,-87
2017-12-27T13:02:24.272Z,-86
2017-12-27T13:03:25.389Z,-86
2017-12-27T13:04:24.401Z,-86
2017-12-27T13:05:24.473Z,-86
2017-12-27T13:06:24.350Z,-86
2017-12-27T13:07:25.400Z,-86
2017-12-27T13:08:24.314Z,-87
2017-12-27T13:09:24.379Z,-85
2017-12-27T13:10:24.081Z,-86
2017-12-27T13:11:24.507Z,-86
2017-12-27T13:12:24.354Z,-86
2017-12-27T13:13:25.048Z,-86
2017-12-27T13:14:25.261Z,-86
2017-12-27T13:15:25.120Z,-86
2017-12-27T13:16:24.302Z,-86
2017-12-27T13:17:24.217Z,-86
2017-12-27T13:18:24.439Z,-86
2017-12-27T13:19:24.169Z,-86
2017-12-27T13:20:24.334Z,-86
2017-12-27T13:21:24.619Z,-86
2017-12-27T13:22:24.326Z,-87
2017-12-27T13:23:24.224Z,-86
2017-12-27T13:24:24.242Z,-86
2017-12-27T13:25:24.670Z,-86
2017-12-27T13:26:24.629Z,-86
2017-12-27T13:27:24.482Z,-86
2017-12-27T13:28:24.791Z,-86
2017-12-27T13:29:24.532Z,-86
2017-12-27T13:30:24.292Z,-86
2017-12-27T13:31:24.391Z,-87
2017-12-27T13:32:24.361Z,-87
2017-12-27T13:33:24.856Z,-86
2017-12-27T13:34:24.928Z,-86
2017-12-27T13:35:24.391Z,-85
2017-12-27T13:36:26.068Z,-80
2017-12-27T13:37:24.486Z,-83
2017-12-27T13:38:24.260Z,-82
2017-12-27T13:39:24.266Z,-83
2017-12-27T13:40:24.461Z,-83
2017-12-27T13:41:24.439Z,-83
2017-12-27T13:42:24.576Z,-82
2017-12-27T13:43:24.350Z,-83
2017-12-27T13:44:24.226Z,-84
2017-12-27T13:45:24.466Z,-83
2017-12-27T13:46:24.384Z,-83
2017-12-27T13:47:24.568Z,-84
2017-12-27T13:48:24.602Z,-84
2017-12-27T13:49:24.453Z,-84
2017-12-27T13:50:24.557Z,-84
2017-12-27T13:51:28.143Z,-84
2017-12-27T13:52:24.528Z,-84
2017-12-27T13:53:24.341Z,-84
2017-12-27T13:54:24.656Z,-84
2017-12-27T13:55:24.381Z,-84
2017-12-27T13:56:24.352Z,-84
2017-12-27T13:57:24.450Z,-84
2017-12-27T13:58:24.693Z,-84
2017-12-27T13:59:24.690Z,-86
2017-12-27T14:00:24.716Z,-86
2017-12-27T14:01:24.509Z,-87
2017-12-27T14:02:24.494Z,-86
2017-12-27T14:03:24.652Z,-86
2017-12-27T14:04:25.249Z,-86
2017-12-27T14:05:25.663Z,-86
2017-12-27T14:06:24.701Z,-87
2017-12-27T14:07:25.713Z,-86
2017-12-27T14:08:24.766Z,-86
2017-12-27T14:09:24.657Z,-86
2017-12-27T14:10:24.816Z,-86
2017-12-27T14:11:25.780Z,-86
2017-12-27T14:12:24.701Z,-88
2017-12-27T14:13:24.580Z,-87
2017-12-27T14:14:24.722Z,-87
2017-12-27T14:15:24.706Z,-88
2017-12-27T14:16:25.494Z,-84
2017-12-27T14:17:24.532Z,-85
2017-12-27T14:18:24.809Z,-85
2017-12-27T14:19:25.346Z,-85
2017-12-27T14:20:24.778Z,-84
2017-12-27T14:21:24.675Z,-85
2017-12-27T14:22:24.760Z,-84
2017-12-27T14:23:26.214Z,-83
2017-12-27T14:24:24.749Z,-84
2017-12-27T14:25:24.667Z,-83
2017-12-27T14:26:24.481Z,-83
2017-12-27T14:27:24.726Z,-83
2017-12-27T14:28:24.435Z,-84
2017-12-27T14:29:25.394Z,-84
2017-12-27T14:30:25.760Z,-82
2017-12-27T14:31:25.329Z,-83
2017-12-27T14:32:24.950Z,-83
2017-12-27T14:35:24.564Z,-83
2017-12-27T14:36:28.650Z,-87
2017-12-27T14:37:24.992Z,-88
2017-12-27T14:38:24.958Z,-90
2017-12-27T14:39:25.019Z,-91
2017-12-27T14:40:25.222Z,-87
2017-12-27T14:41:26.573Z,-87
2017-12-27T14:42:26.401Z,-87
2017-12-27T14:43:27.923Z,-88
2017-12-27T14:44:26.190Z,-88
2017-12-27T14:45:26.996Z,-88
2017-12-27T14:46:25.086Z,-88
2017-12-27T14:47:47.570Z,-88
2017-12-27T14:48:25.952Z,-88
2017-12-27T14:49:24.861Z,-88
2017-12-27T14:50:25.850Z,-88
2017-12-27T14:51:25.670Z,-88
2017-12-27T14:52:25.655Z,-88
2017-12-27T14:53:25.374Z,-88
2017-12-27T14:54:25.639Z,-88
2017-12-27T14:55:25.817Z,-88
2017-12-27T14:56:25.451Z,-88
2017-12-27T14:57:25.163Z,-88
2017-12-27T14:58:26.161Z,-88
2017-12-27T14:59:40.191Z,-88
2017-12-27T15:00:27.811Z,-88
2017-12-27T15:01:25.356Z,-88
2017-12-27T15:02:26.237Z,-87
2017-12-27T15:03:25.978Z,-88
2017-12-27T15:05:25.616Z,-88
2017-12-27T15:06:26.423Z,-88
2017-12-27T15:07:24.918Z,-88
2017-12-27T15:08:24.819Z,-89